sensor_id;sensor_type;location;lat;lon;timestamp;pressure;altitude;pressure_sealevel;temperature;humidity
77003;BME280;65939;50.060;14.288;2023-08-31T00:00:12;96499.97;;;13.73;97.63
77003;BME280;65939;50.060;14.288;2023-08-31T00:02:13;96497.16;;;13.74;96.89
77003;BME280;65939;50.060;14.288;2023-08-31T00:04:14;96504.84;;;13.76;97.47
77003;BME280;65939;50.060;14.288;2023-08-31T00:06:15;96508.09;;;13.78;97.30
77003;BME280;65939;50.060;14.288;2023-08-31T00:08:15;96506.06;;;13.80;96.89
77003;BME280;65939;50.060;14.288;2023-08-31T00:10:18;96507.69;;;13.81;97.05
77003;BME280;65939;50.060;14.288;2023-08-31T00:12:18;96510.13;;;13.82;96.28
77003;BME280;65939;50.060;14.288;2023-08-31T00:14:19;96508.13;;;13.84;96.87
77003;BME280;65939;50.060;14.288;2023-08-31T00:16:24;96505.50;;;13.84;96.54
77003;BME280;65939;50.060;14.288;2023-08-31T00:18:26;96501.22;;;13.83;96.07
77003;BME280;65939;50.060;14.288;2023-08-31T00:20:27;96504.88;;;13.82;96.26
77003;BME280;65939;50.060;14.288;2023-08-31T00:22:30;96502.63;;;13.79;96.37
77003;BME280;65939;50.060;14.288;2023-08-31T00:24:31;96496.78;;;13.77;96.40
77003;BME280;65939;50.060;14.288;2023-08-31T00:26:33;96497.78;;;13.76;96.43
77003;BME280;65939;50.060;14.288;2023-08-31T00:28:35;96490.50;;;13.72;96.11
77003;BME280;65939;50.060;14.288;2023-08-31T00:30:36;96499.56;;;13.69;96.06
77003;BME280;65939;50.060;14.288;2023-08-31T00:32:37;96504.38;;;13.65;95.53
77003;BME280;65939;50.060;14.288;2023-08-31T00:34:39;96495.28;;;13.61;95.72
77003;BME280;65939;50.060;14.288;2023-08-31T00:36:40;96498.28;;;13.58;96.14
77003;BME280;65939;50.060;14.288;2023-08-31T00:38:41;96496.88;;;13.56;96.74
77003;BME280;65939;50.060;14.288;2023-08-31T00:40:43;96493.63;;;13.54;97.06
77003;BME280;65939;50.060;14.288;2023-08-31T00:42:45;96500.88;;;13.52;97.04
77003;BME280;65939;50.060;14.288;2023-08-31T00:44:46;96494.00;;;13.51;96.54
77003;BME280;65939;50.060;14.288;2023-08-31T00:46:47;96496.63;;;13.51;96.95
77003;BME280;65939;50.060;14.288;2023-08-31T00:48:48;96498.25;;;13.52;96.26
77003;BME280;65939;50.060;14.288;2023-08-31T00:50:49;96496.25;;;13.54;95.91
77003;BME280;65939;50.060;14.288;2023-08-31T00:52:50;96505.56;;;13.56;95.98
77003;BME280;65939;50.060;14.288;2023-08-31T00:54:52;96493.03;;;13.58;95.96
77003;BME280;65939;50.060;14.288;2023-08-31T00:56:53;96492.88;;;13.60;96.28
77003;BME280;65939;50.060;14.288;2023-08-31T00:58:54;96494.69;;;13.59;96.27
77003;BME280;65939;50.060;14.288;2023-08-31T01:01:11;96504.78;;;13.62;96.51
77003;BME280;65939;50.060;14.288;2023-08-31T01:03:35;96501.97;;;13.64;95.67
77003;BME280;65939;50.060;14.288;2023-08-31T01:05:52;96498.31;;;13.65;95.80
77003;BME280;65939;50.060;14.288;2023-08-31T01:14:56;96518.72;;;13.63;96.01
77003;BME280;65939;50.060;14.288;2023-08-31T01:17:02;96518.72;;;13.63;95.11
77003;BME280;65939;50.060;14.288;2023-08-31T01:19:15;96520.53;;;13.62;95.06
77003;BME280;65939;50.060;14.288;2023-08-31T01:21:38;96520.72;;;13.61;95.22
77003;BME280;65939;50.060;14.288;2023-08-31T01:23:52;96514.03;;;13.58;95.19
77003;BME280;65939;50.060;14.288;2023-08-31T01:25:53;96513.59;;;13.55;94.77
77003;BME280;65939;50.060;14.288;2023-08-31T01:27:55;96508.75;;;13.52;95.39
77003;BME280;65939;50.060;14.288;2023-08-31T01:29:56;96517.19;;;13.47;95.06
77003;BME280;65939;50.060;14.288;2023-08-31T01:31:56;96512.34;;;13.44;95.58
77003;BME280;65939;50.060;14.288;2023-08-31T01:33:57;96511.31;;;13.38;95.87
77003;BME280;65939;50.060;14.288;2023-08-31T01:36:00;96514.31;;;13.35;95.45
77003;BME280;65939;50.060;14.288;2023-08-31T01:38:06;96506.19;;;13.30;96.07
77003;BME280;65939;50.060;14.288;2023-08-31T01:40:19;96521.69;;;13.25;95.98
77003;BME280;65939;50.060;14.288;2023-08-31T01:42:26;96517.00;;;13.21;95.48
77003;BME280;65939;50.060;14.288;2023-08-31T01:44:31;96513.16;;;13.16;95.73
77003;BME280;65939;50.060;14.288;2023-08-31T01:46:33;96512.50;;;13.14;96.06
77003;BME280;65939;50.060;14.288;2023-08-31T01:48:39;96510.91;;;13.13;96.81
77003;BME280;65939;50.060;14.288;2023-08-31T01:50:40;96511.88;;;13.12;96.73
77003;BME280;65939;50.060;14.288;2023-08-31T01:52:41;96511.47;;;13.09;97.27
77003;BME280;65939;50.060;14.288;2023-08-31T01:54:42;96509.66;;;13.09;97.17
77003;BME280;65939;50.060;14.288;2023-08-31T01:56:42;96513.28;;;13.08;95.99
77003;BME280;65939;50.060;14.288;2023-08-31T01:58:43;96517.09;;;13.06;97.16
77003;BME280;65939;50.060;14.288;2023-08-31T02:00:44;96516.47;;;13.04;97.28
77003;BME280;65939;50.060;14.288;2023-08-31T02:02:45;96520.09;;;13.03;96.96
77003;BME280;65939;50.060;14.288;2023-08-31T02:04:46;96519.28;;;13.02;97.23
77003;BME280;65939;50.060;14.288;2023-08-31T02:06:46;96513.22;;;13.02;96.82
77003;BME280;65939;50.060;14.288;2023-08-31T02:08:47;96513.22;;;13.02;97.75
77003;BME280;65939;50.060;14.288;2023-08-31T02:10:48;96518.47;;;13.02;97.15
77003;BME280;65939;50.060;14.288;2023-08-31T02:12:49;96527.31;;;13.01;97.39
77003;BME280;65939;50.060;14.288;2023-08-31T02:14:49;96522.09;;;13.01;97.63
77003;BME280;65939;50.060;14.288;2023-08-31T02:16:50;96520.47;;;13.00;96.97
77003;BME280;65939;50.060;14.288;2023-08-31T02:18:50;96522.47;;;12.98;98.08
77003;BME280;65939;50.060;14.288;2023-08-31T02:20:54;96515.59;;;12.97;97.69
77003;BME280;65939;50.060;14.288;2023-08-31T02:22:54;96515.97;;;12.93;97.07
77003;BME280;65939;50.060;14.288;2023-08-31T02:24:56;96518.81;;;12.92;98.12
77003;BME280;65939;50.060;14.288;2023-08-31T02:26:56;96518.97;;;12.90;98.28
77003;BME280;65939;50.060;14.288;2023-08-31T02:28:57;96515.56;;;12.90;98.15
77003;BME280;65939;50.060;14.288;2023-08-31T02:31:00;96521.59;;;12.90;97.90
77003;BME280;65939;50.060;14.288;2023-08-31T02:33:02;96519.63;;;12.92;98.72
77003;BME280;65939;50.060;14.288;2023-08-31T02:35:02;96515.19;;;12.93;98.36
77003;BME280;65939;50.060;14.288;2023-08-31T02:37:03;96519.25;;;12.96;99.00
77003;BME280;65939;50.060;14.288;2023-08-31T02:39:04;96515.22;;;13.00;98.26
77003;BME280;65939;50.060;14.288;2023-08-31T02:41:05;96521.06;;;13.02;99.50
77003;BME280;65939;50.060;14.288;2023-08-31T02:43:05;96519.09;;;13.04;98.66
77003;BME280;65939;50.060;14.288;2023-08-31T02:45:06;96523.97;;;13.07;98.57
77003;BME280;65939;50.060;14.288;2023-08-31T02:47:07;96520.97;;;13.10;98.14
77003;BME280;65939;50.060;14.288;2023-08-31T02:49:07;96520.19;;;13.16;98.38
77003;BME280;65939;50.060;14.288;2023-08-31T02:51:08;96523.06;;;13.21;98.54
77003;BME280;65939;50.060;14.288;2023-08-31T02:53:09;96516.25;;;13.27;99.05
77003;BME280;65939;50.060;14.288;2023-08-31T02:55:10;96522.34;;;13.34;98.40
77003;BME280;65939;50.060;14.288;2023-08-31T02:57:10;96518.38;;;13.38;98.64
77003;BME280;65939;50.060;14.288;2023-08-31T02:59:11;96513.13;;;13.45;98.66
77003;BME280;65939;50.060;14.288;2023-08-31T03:01:13;96517.81;;;13.49;98.56
77003;BME280;65939;50.060;14.288;2023-08-31T03:03:17;96524.28;;;13.53;97.42
77003;BME280;65939;50.060;14.288;2023-08-31T03:05:19;96519.28;;;13.58;97.33
77003;BME280;65939;50.060;14.288;2023-08-31T03:07:19;96513.47;;;13.63;97.18
77003;BME280;65939;50.060;14.288;2023-08-31T03:09:20;96535.69;;;13.67;97.00
77003;BME280;65939;50.060;14.288;2023-08-31T03:11:21;96529.03;;;13.71;97.71
77003;BME280;65939;50.060;14.288;2023-08-31T03:13:21;96528.66;;;13.74;97.37
77003;BME280;65939;50.060;14.288;2023-08-31T03:15:22;96522.00;;;13.78;96.80
77003;BME280;65939;50.060;14.288;2023-08-31T03:17:23;96519.81;;;13.82;96.52
77003;BME280;65939;50.060;14.288;2023-08-31T03:19:24;96526.28;;;13.86;96.38
77003;BME280;65939;50.060;14.288;2023-08-31T03:21:25;96533.56;;;13.90;96.65
77003;BME280;65939;50.060;14.288;2023-08-31T03:23:26;96532.38;;;13.93;96.31
77003;BME280;65939;50.060;14.288;2023-08-31T03:25:27;96531.97;;;13.96;96.65
77003;BME280;65939;50.060;14.288;2023-08-31T03:27:28;96525.72;;;13.97;96.21
77003;BME280;65939;50.060;14.288;2023-08-31T03:29:28;96533.59;;;13.97;96.12
77003;BME280;65939;50.060;14.288;2023-08-31T03:31:29;96531.78;;;13.98;96.27
77003;BME280;65939;50.060;14.288;2023-08-31T03:33:31;96535.22;;;13.98;96.36
77003;BME280;65939;50.060;14.288;2023-08-31T03:35:32;96540.28;;;14.00;96.80
77003;BME280;65939;50.060;14.288;2023-08-31T03:37:33;96540.28;;;14.00;96.51
77003;BME280;65939;50.060;14.288;2023-08-31T03:39:34;96537.66;;;14.00;96.91
77003;BME280;65939;50.060;14.288;2023-08-31T03:41:35;96537.66;;;14.00;96.21
77003;BME280;65939;50.060;14.288;2023-08-31T03:43:36;96543.69;;;14.00;95.95
77003;BME280;65939;50.060;14.288;2023-08-31T03:45:36;96538.28;;;14.02;96.52
77003;BME280;65939;50.060;14.288;2023-08-31T03:47:37;96538.06;;;14.03;96.44
77003;BME280;65939;50.060;14.288;2023-08-31T03:49:38;96539.50;;;14.06;96.80
77003;BME280;65939;50.060;14.288;2023-08-31T03:51:39;96544.75;;;14.06;95.78
77003;BME280;65939;50.060;14.288;2023-08-31T03:53:39;96538.28;;;14.08;96.35
77003;BME280;65939;50.060;14.288;2023-08-31T03:55:40;96548.59;;;14.10;96.97
77003;BME280;65939;50.060;14.288;2023-08-31T03:57:41;96547.78;;;14.09;96.60
77003;BME280;65939;50.060;14.288;2023-08-31T03:59:41;96550.22;;;14.11;96.53
77003;BME280;65939;50.060;14.288;2023-08-31T04:01:42;96550.22;;;14.11;96.20
77003;BME280;65939;50.060;14.288;2023-08-31T04:03:43;96555.47;;;14.11;96.24
77003;BME280;65939;50.060;14.288;2023-08-31T04:05:43;96552.03;;;14.10;96.31
77003;BME280;65939;50.060;14.288;2023-08-31T04:07:44;96554.44;;;14.12;96.30
77003;BME280;65939;50.060;14.288;2023-08-31T04:09:45;96557.69;;;14.14;96.23
77003;BME280;65939;50.060;14.288;2023-08-31T04:11:46;96563.97;;;14.13;95.58
77003;BME280;65939;50.060;14.288;2023-08-31T04:13:46;96575.25;;;14.13;95.41
77003;BME280;65939;50.060;14.288;2023-08-31T04:15:47;96577.09;;;14.13;95.31
77003;BME280;65939;50.060;14.288;2023-08-31T04:17:47;96573.66;;;14.12;95.46
77003;BME280;65939;50.060;14.288;2023-08-31T04:19:50;96583.16;;;14.13;95.56
77003;BME280;65939;50.060;14.288;2023-08-31T04:21:51;96576.06;;;14.14;95.75
77003;BME280;65939;50.060;14.288;2023-08-31T04:23:51;96578.50;;;14.16;95.64
77003;BME280;65939;50.060;14.288;2023-08-31T04:25:52;96581.94;;;14.16;95.10
77003;BME280;65939;50.060;14.288;2023-08-31T04:27:53;96578.50;;;14.16;95.42
77003;BME280;65939;50.060;14.288;2023-08-31T04:29:54;96586.56;;;14.14;95.51
77003;BME280;65939;50.060;14.288;2023-08-31T04:31:55;96590.22;;;14.13;95.19
77003;BME280;65939;50.060;14.288;2023-08-31T04:33:55;96588.56;;;14.12;95.36
77003;BME280;65939;50.060;14.288;2023-08-31T04:35:56;96594.44;;;14.14;95.90
77003;BME280;65939;50.060;14.288;2023-08-31T04:37:57;96596.25;;;14.13;95.67
77003;BME280;65939;50.060;14.288;2023-08-31T04:39:58;96604.94;;;14.14;95.13
77003;BME280;65939;50.060;14.288;2023-08-31T04:41:58;96613.44;;;14.16;95.21
77003;BME280;65939;50.060;14.288;2023-08-31T04:43:59;96603.13;;;14.14;95.65
77003;BME280;65939;50.060;14.288;2023-08-31T04:46:00;96616.88;;;14.17;95.45
77003;BME280;65939;50.060;14.288;2023-08-31T04:48:01;96622.94;;;14.17;95.28
77003;BME280;65939;50.060;14.288;2023-08-31T04:50:01;96621.34;;;14.16;95.19
77003;BME280;65939;50.060;14.288;2023-08-31T04:52:04;96626.38;;;14.18;95.45
77003;BME280;65939;50.060;14.288;2023-08-31T04:54:05;96622.56;;;14.20;94.86
77003;BME280;65939;50.060;14.288;2023-08-31T04:56:05;96630.59;;;14.19;95.19
77003;BME280;65939;50.060;14.288;2023-08-31T04:58:08;96629.63;;;14.20;95.04
77003;BME280;65939;50.060;14.288;2023-08-31T05:00:09;96640.94;;;14.20;95.17
77003;BME280;65939;50.060;14.288;2023-08-31T05:02:10;96644.53;;;14.19;95.55
77003;BME280;65939;50.060;14.288;2023-08-31T05:04:10;96649.19;;;14.17;96.54
77003;BME280;65939;50.060;14.288;2023-08-31T05:06:11;96638.28;;;14.13;96.57
77003;BME280;65939;50.060;14.288;2023-08-31T05:08:12;96649.97;;;14.11;96.69
77003;BME280;65939;50.060;14.288;2023-08-31T05:10:12;96653.59;;;14.10;96.75
77003;BME280;65939;50.060;14.288;2023-08-31T05:12:13;96655.59;;;14.08;97.44
77003;BME280;65939;50.060;14.288;2023-08-31T05:14:13;96652.53;;;14.04;98.16
77003;BME280;65939;50.060;14.288;2023-08-31T05:16:14;96650.13;;;14.03;97.96
77003;BME280;65939;50.060;14.288;2023-08-31T05:18:15;96647.88;;;14.00;97.85
77003;BME280;65939;50.060;14.288;2023-08-31T05:20:15;96655.13;;;13.98;98.40
77003;BME280;65939;50.060;14.288;2023-08-31T05:22:16;96659.78;;;13.96;98.50
77003;BME280;65939;50.060;14.288;2023-08-31T05:24:17;96656.72;;;13.92;99.01
77003;BME280;65939;50.060;14.288;2023-08-31T05:26:17;96659.94;;;13.87;100.00
77003;BME280;65939;50.060;14.288;2023-08-31T05:28:18;96667.81;;;13.87;100.00
77003;BME280;65939;50.060;14.288;2023-08-31T05:30:18;96667.81;;;13.87;100.00
77003;BME280;65939;50.060;14.288;2023-08-31T05:32:19;96663.53;;;13.86;100.00
77003;BME280;65939;50.060;14.288;2023-08-31T05:34:25;96673.06;;;13.87;100.00
77003;BME280;65939;50.060;14.288;2023-08-31T05:36:26;96679.91;;;13.88;100.00
77003;BME280;65939;50.060;14.288;2023-08-31T05:38:27;96678.91;;;13.89;100.00
77003;BME280;65939;50.060;14.288;2023-08-31T05:40:27;96679.72;;;13.90;100.00
77003;BME280;65939;50.060;14.288;2023-08-31T05:42:28;96680.94;;;13.94;100.00
77003;BME280;65939;50.060;14.288;2023-08-31T05:44:28;96686.81;;;13.96;100.00
77003;BME280;65939;50.060;14.288;2023-08-31T05:46:29;96687.25;;;14.00;100.00
77003;BME280;65939;50.060;14.288;2023-08-31T05:48:30;96693.13;;;14.02;100.00
77003;BME280;65939;50.060;14.288;2023-08-31T05:50:31;96695.34;;;14.05;100.00
77003;BME280;65939;50.060;14.288;2023-08-31T05:52:32;96683.50;;;14.09;100.00
77003;BME280;65939;50.060;14.288;2023-08-31T05:54:33;96696.03;;;14.13;100.00
77003;BME280;65939;50.060;14.288;2023-08-31T05:56:33;96700.09;;;14.16;100.00
77003;BME280;65939;50.060;14.288;2023-08-31T05:58:35;96702.13;;;14.21;100.00
77003;BME280;65939;50.060;14.288;2023-08-31T06:00:36;96694.25;;;14.21;100.00
77003;BME280;65939;50.060;14.288;2023-08-31T06:02:37;96700.94;;;14.23;100.00
77003;BME280;65939;50.060;14.288;2023-08-31T06:04:37;96702.16;;;14.27;100.00
77003;BME280;65939;50.060;14.288;2023-08-31T06:06:38;96708.66;;;14.31;100.00
77003;BME280;65939;50.060;14.288;2023-08-31T06:08:39;96705.00;;;14.32;100.00
77003;BME280;65939;50.060;14.288;2023-08-31T06:10:39;96708.28;;;14.34;100.00
77003;BME280;65939;50.060;14.288;2023-08-31T06:12:40;96710.31;;;14.39;100.00
77003;BME280;65939;50.060;14.288;2023-08-31T06:14:41;96714.38;;;14.42;100.00
77003;BME280;65939;50.060;14.288;2023-08-31T06:16:41;96719.25;;;14.45;100.00
77003;BME280;65939;50.060;14.288;2023-08-31T06:18:42;96721.66;;;14.46;100.00
77003;BME280;65939;50.060;14.288;2023-08-31T06:20:43;96725.09;;;14.47;100.00
77003;BME280;65939;50.060;14.288;2023-08-31T06:22:44;96725.72;;;14.49;99.79
77003;BME280;65939;50.060;14.288;2023-08-31T06:24:45;96726.97;;;14.53;100.00
77003;BME280;65939;50.060;14.288;2023-08-31T06:26:46;96731.84;;;14.56;99.57
77003;BME280;65939;50.060;14.288;2023-08-31T06:28:46;96737.31;;;14.61;99.20
77003;BME280;65939;50.060;14.288;2023-08-31T06:30:47;96734.47;;;14.56;98.45
77003;BME280;65939;50.060;14.288;2023-08-31T06:32:48;96739.94;;;14.61;99.08
77003;BME280;65939;50.060;14.288;2023-08-31T06:34:50;96742.41;;;14.63;98.90
77003;BME280;65939;50.060;14.288;2023-08-31T06:36:51;96738.56;;;14.65;99.00
77003;BME280;65939;50.060;14.288;2023-08-31T06:38:51;96736.34;;;14.69;99.00
77003;BME280;65939;50.060;14.288;2023-08-31T06:40:52;96745.66;;;14.71;98.27
77003;BME280;65939;50.060;14.288;2023-08-31T06:42:59;96746.06;;;14.68;98.30
77003;BME280;65939;50.060;14.288;2023-08-31T06:45:00;96749.47;;;14.69;98.49
77003;BME280;65939;50.060;14.288;2023-08-31T06:47:00;96745.50;;;14.73;98.96
77003;BME280;65939;50.060;14.288;2023-08-31T06:49:01;96739.25;;;14.80;98.44
77003;BME280;65939;50.060;14.288;2023-08-31T06:51:02;96743.94;;;14.92;98.59
77003;BME280;65939;50.060;14.288;2023-08-31T06:53:05;96736.88;;;14.99;98.61
77003;BME280;65939;50.060;14.288;2023-08-31T06:55:06;96742.16;;;14.99;97.23
77003;BME280;65939;50.060;14.288;2023-08-31T06:57:07;96744.56;;;15.00;97.01
77003;BME280;65939;50.060;14.288;2023-08-31T06:59:07;96748.25;;;15.06;97.27
77003;BME280;65939;50.060;14.288;2023-08-31T07:01:08;96742.78;;;15.14;97.42
77003;BME280;65939;50.060;14.288;2023-08-31T07:03:09;96751.94;;;15.25;96.53
77003;BME280;65939;50.060;14.288;2023-08-31T07:05:11;96752.56;;;15.33;95.69
77003;BME280;65939;50.060;14.288;2023-08-31T07:07:12;96754.59;;;15.38;95.46
77003;BME280;65939;50.060;14.288;2023-08-31T07:09:15;96750.16;;;15.39;94.38
77003;BME280;65939;50.060;14.288;2023-08-31T07:11:17;96758.03;;;15.39;93.27
77003;BME280;65939;50.060;14.288;2023-08-31T07:13:18;96755.41;;;15.39;92.88
77003;BME280;65939;50.060;14.288;2023-08-31T07:15:18;96752.16;;;15.37;92.68
77003;BME280;65939;50.060;14.288;2023-08-31T07:17:19;96755.63;;;15.37;92.32
77003;BME280;65939;50.060;14.288;2023-08-31T07:19:20;96757.81;;;15.40;92.09
77003;BME280;65939;50.060;14.288;2023-08-31T07:21:21;96757.66;;;15.42;90.84
77003;BME280;65939;50.060;14.288;2023-08-31T07:23:23;96758.88;;;15.46;90.87
77003;BME280;65939;50.060;14.288;2023-08-31T07:25:23;96771.41;;;15.50;90.59
77003;BME280;65939;50.060;14.288;2023-08-31T07:27:24;96771.25;;;15.59;90.26
77003;BME280;65939;50.060;14.288;2023-08-31T07:29:25;96769.03;;;15.62;89.88
77003;BME280;65939;50.060;14.288;2023-08-31T07:31:25;96780.34;;;15.63;88.63
77003;BME280;65939;50.060;14.288;2023-08-31T07:33:26;96779.13;;;15.65;87.82
77003;BME280;65939;50.060;14.288;2023-08-31T07:35:27;96782.63;;;15.72;88.05
77003;BME280;65939;50.060;14.288;2023-08-31T07:37:28;96780.59;;;15.81;88.24
77003;BME280;65939;50.060;14.288;2023-08-31T07:39:28;96773.31;;;15.90;88.51
77003;BME280;65939;50.060;14.288;2023-08-31T07:41:29;96786.72;;;16.01;87.94
77003;BME280;65939;50.060;14.288;2023-08-31T07:43:29;96786.50;;;16.16;87.95
77003;BME280;65939;50.060;14.288;2023-08-31T07:45:30;96799.06;;;16.27;87.14
77003;BME280;65939;50.060;14.288;2023-08-31T07:47:31;96789.09;;;16.36;86.13
77003;BME280;65939;50.060;14.288;2023-08-31T07:49:31;96800.25;;;16.45;85.04
77003;BME280;65939;50.060;14.288;2023-08-31T07:51:32;96804.91;;;16.49;84.50
77003;BME280;65939;50.060;14.288;2023-08-31T07:53:33;96805.13;;;16.55;84.40
77003;BME280;65939;50.060;14.288;2023-08-31T07:55:34;96800.84;;;16.60;84.89
77003;BME280;65939;50.060;14.288;2023-08-31T07:57:38;96801.44;;;16.69;84.63
77003;BME280;65939;50.060;14.288;2023-08-31T07:59:39;96805.47;;;16.71;83.92
77003;BME280;65939;50.060;14.288;2023-08-31T08:01:40;96806.94;;;16.74;83.54
77003;BME280;65939;50.060;14.288;2023-08-31T08:03:44;96802.44;;;16.81;83.76
77003;BME280;65939;50.060;14.288;2023-08-31T08:05:44;96806.09;;;16.87;82.32
77003;BME280;65939;50.060;14.288;2023-08-31T08:07:45;96809.72;;;16.92;82.87
77003;BME280;65939;50.060;14.288;2023-08-31T08:09:46;96803.41;;;17.00;82.38
77003;BME280;65939;50.060;14.288;2023-08-31T08:11:47;96811.09;;;17.08;81.85
77003;BME280;65939;50.060;14.288;2023-08-31T08:13:48;96827.72;;;17.15;81.48
77003;BME280;65939;50.060;14.288;2023-08-31T08:15:49;96812.06;;;17.20;80.37
77003;BME280;65939;50.060;14.288;2023-08-31T08:17:50;96821.97;;;17.25;81.03
77003;BME280;65939;50.060;14.288;2023-08-31T08:19:50;96815.88;;;17.31;80.03
77003;BME280;65939;50.060;14.288;2023-08-31T08:21:51;96816.22;;;17.41;80.41
77003;BME280;65939;50.060;14.288;2023-08-31T08:23:52;96813.13;;;17.58;79.86
77003;BME280;65939;50.060;14.288;2023-08-31T08:25:53;96821.97;;;17.77;80.37
77003;BME280;65939;50.060;14.288;2023-08-31T08:27:54;96829.16;;;17.94;80.74
77003;BME280;65939;50.060;14.288;2023-08-31T08:29:54;96829.28;;;18.06;78.69
77003;BME280;65939;50.060;14.288;2023-08-31T08:31:55;96814.03;;;18.08;76.81
77003;BME280;65939;50.060;14.288;2023-08-31T08:33:56;96823.94;;;18.13;76.16
77003;BME280;65939;50.060;14.288;2023-08-31T08:35:57;96820.44;;;18.19;75.40
77003;BME280;65939;50.060;14.288;2023-08-31T08:37:58;96829.50;;;18.30;76.01
77003;BME280;65939;50.060;14.288;2023-08-31T08:40:00;96818.13;;;18.29;76.05
77003;BME280;65939;50.060;14.288;2023-08-31T08:42:04;96819.78;;;18.24;75.46
77003;BME280;65939;50.060;14.288;2023-08-31T08:44:07;96825.50;;;18.21;75.91
77003;BME280;65939;50.060;14.288;2023-08-31T08:46:09;96819.41;;;18.20;74.33
77003;BME280;65939;50.060;14.288;2023-08-31T08:48:09;96825.34;;;18.15;73.92
77003;BME280;65939;50.060;14.288;2023-08-31T08:50:13;96819.69;;;18.12;74.32
77003;BME280;65939;50.060;14.288;2023-08-31T08:52:15;96819.09;;;18.10;73.27
77003;BME280;65939;50.060;14.288;2023-08-31T08:54:18;96826.44;;;18.08;72.99
77003;BME280;65939;50.060;14.288;2023-08-31T08:56:18;96815.88;;;18.08;72.54
77003;BME280;65939;50.060;14.288;2023-08-31T08:58:19;96825.34;;;18.15;73.84
77003;BME280;65939;50.060;14.288;2023-08-31T09:00:20;96824.88;;;18.25;72.74
77003;BME280;65939;50.060;14.288;2023-08-31T09:02:20;96829.13;;;18.26;71.50
77003;BME280;65939;50.060;14.288;2023-08-31T09:04:22;96821.50;;;18.18;72.47
77003;BME280;65939;50.060;14.288;2023-08-31T09:06:23;96825.94;;;18.17;73.00
77003;BME280;65939;50.060;14.288;2023-08-31T09:08:27;96824.50;;;18.22;73.71
77003;BME280;65939;50.060;14.288;2023-08-31T09:10:39;96823.94;;;18.38;74.28
77003;BME280;65939;50.060;14.288;2023-08-31T09:12:39;96824.00;;;18.56;73.42
77003;BME280;65939;50.060;14.288;2023-08-31T09:14:40;96834.25;;;18.71;72.89
77003;BME280;65939;50.060;14.288;2023-08-31T09:16:45;96828.47;;;18.81;71.55
77003;BME280;65939;50.060;14.288;2023-08-31T09:18:46;96823.09;;;18.87;71.34
77003;BME280;65939;50.060;14.288;2023-08-31T09:20:47;96829.81;;;18.90;71.68
77003;BME280;65939;50.060;14.288;2023-08-31T09:22:48;96842.22;;;18.89;70.99
77003;BME280;65939;50.060;14.288;2023-08-31T09:24:51;96833.50;;;18.89;71.43
77003;BME280;65939;50.060;14.288;2023-08-31T09:26:58;96833.03;;;18.92;71.08
77003;BME280;65939;50.060;14.288;2023-08-31T09:28:58;96837.88;;;18.95;70.29
77003;BME280;65939;50.060;14.288;2023-08-31T09:31:05;96840.69;;;19.00;70.62
77003;BME280;65939;50.060;14.288;2023-08-31T09:33:09;96839.66;;;19.01;69.46
77003;BME280;65939;50.060;14.288;2023-08-31T09:35:11;96849.94;;;19.09;68.67
77003;BME280;65939;50.060;14.288;2023-08-31T09:37:11;96841.13;;;19.16;68.53
77003;BME280;65939;50.060;14.288;2023-08-31T09:39:14;96853.03;;;19.25;68.25
77003;BME280;65939;50.060;14.288;2023-08-31T09:41:15;96845.97;;;19.37;66.85
77003;BME280;65939;50.060;14.288;2023-08-31T09:43:20;96849.94;;;19.46;66.16
77003;BME280;65939;50.060;14.288;2023-08-31T09:45:30;96856.41;;;19.50;65.99
77003;BME280;65939;50.060;14.288;2023-08-31T09:47:32;96849.38;;;19.56;66.90
77003;BME280;65939;50.060;14.288;2023-08-31T09:49:34;96860.13;;;19.61;66.73
77003;BME280;65939;50.060;14.288;2023-08-31T09:51:39;96857.56;;;19.54;66.21
77003;BME280;65939;50.060;14.288;2023-08-31T09:53:42;96848.38;;;19.38;67.27
77003;BME280;65939;50.060;14.288;2023-08-31T09:55:48;96856.34;;;19.20;67.99
77003;BME280;65939;50.060;14.288;2023-08-31T09:57:52;96855.91;;;19.05;67.13
77003;BME280;65939;50.060;14.288;2023-08-31T09:59:53;96857.44;;;18.94;66.43
77003;BME280;65939;50.060;14.288;2023-08-31T10:01:54;96856.03;;;18.92;66.34
77003;BME280;65939;50.060;14.288;2023-08-31T10:03:56;96860.03;;;19.01;65.93
77003;BME280;65939;50.060;14.288;2023-08-31T10:05:59;96856.28;;;19.08;65.28
77003;BME280;65939;50.060;14.288;2023-08-31T10:08:01;96846.84;;;19.12;64.94
77003;BME280;65939;50.060;14.288;2023-08-31T10:10:03;96852.94;;;19.13;65.00
77003;BME280;65939;50.060;14.288;2023-08-31T10:12:04;96850.09;;;19.14;65.54
77003;BME280;65939;50.060;14.288;2023-08-31T10:14:09;96849.88;;;19.16;65.45
77003;BME280;65939;50.060;14.288;2023-08-31T10:16:11;96855.97;;;19.17;65.33
77003;BME280;65939;50.060;14.288;2023-08-31T10:18:11;96851.34;;;19.12;64.64
77003;BME280;65939;50.060;14.288;2023-08-31T10:20:16;96863.03;;;19.04;64.92
77003;BME280;65939;50.060;14.288;2023-08-31T10:22:17;96859.22;;;19.00;65.29
77003;BME280;65939;50.060;14.288;2023-08-31T10:24:17;96851.41;;;19.05;65.03
77003;BME280;65939;50.060;14.288;2023-08-31T10:26:29;96854.97;;;19.18;66.30
77003;BME280;65939;50.060;14.288;2023-08-31T10:28:39;96863.09;;;19.34;66.22
77003;BME280;65939;50.060;14.288;2023-08-31T10:30:40;96859.19;;;19.37;64.21
77003;BME280;65939;50.060;14.288;2023-08-31T10:32:41;96864.19;;;19.27;64.08
77003;BME280;65939;50.060;14.288;2023-08-31T10:34:41;96869.88;;;19.30;64.90
77003;BME280;65939;50.060;14.288;2023-08-31T10:36:45;96861.72;;;19.32;64.53
77003;BME280;65939;50.060;14.288;2023-08-31T10:39:00;96872.88;;;19.34;66.09
77003;BME280;65939;50.060;14.288;2023-08-31T10:43:14;96871.25;;;19.51;65.17
77003;BME280;65939;50.060;14.288;2023-08-31T10:45:20;96871.63;;;19.55;65.15